createdAt,value
2023-08-11T00:16:19.310Z,39.13
2023-08-11T00:36:19.239Z,39.13
2023-08-11T00:56:19.233Z,39.14
2023-08-11T01:16:19.264Z,39.14
2023-08-11T02:56:19.161Z,39.16
2023-08-11T03:16:19.075Z,39.17
2023-08-11T03:36:19.058Z,39.17
2023-08-11T03:56:19.030Z,39.17
2023-08-11T04:36:18.996Z,39.18
2023-08-11T05:16:18.989Z,39.17
2023-08-11T08:56:18.685Z,39.29
2023-08-11T09:16:18.669Z,39.42
2023-08-11T09:36:18.617Z,38.89
2023-08-11T09:56:18.580Z,38.7
2023-08-11T10:16:18.642Z,38.69
2023-08-11T10:36:18.520Z,39.02
2023-08-11T10:56:18.500Z,39.16
2023-08-11T11:36:18.484Z,38.42
2023-08-11T11:56:18.422Z,38.22
2023-08-11T12:16:18.438Z,38.09
2023-08-11T12:36:18.374Z,38.49
2023-08-11T12:56:18.362Z,37.89
2023-08-11T17:16:18.151Z,36.85
2023-08-11T17:36:18.028Z,36.8
2023-08-11T17:56:18.000Z,36.77
2023-08-11T18:16:18.018Z,36.75
2023-08-11T18:36:17.948Z,36.74
2023-08-11T18:56:17.917Z,36.74
2023-08-11T19:16:17.892Z,36.74
2023-08-11T19:36:17.855Z,36.75
2023-08-11T19:56:17.856Z,36.76
2023-08-11T20:16:17.853Z,36.75
2023-08-11T20:36:17.770Z,36.75
2023-08-11T20:56:17.748Z,36.76
2023-08-11T21:16:17.727Z,36.77
2023-08-11T21:36:17.679Z,36.76
2023-08-11T21:56:17.656Z,36.77
2023-08-11T22:16:17.662Z,36.77
2023-08-11T22:36:17.587Z,36.77
2023-08-11T22:56:17.566Z,36.76
2023-08-11T23:16:17.558Z,36.76
2023-08-11T23:36:17.531Z,36.77
2023-08-11T23:56:17.483Z,36.81
